createdAt,value
2018-07-13T00:10:25.226Z,0.00
2018-07-13T00:11:26.022Z,0.00
2018-07-13T00:12:26.792Z,0.00
2018-07-13T00:13:27.565Z,0.00
2018-07-13T00:14:28.336Z,0.00
2018-07-13T00:15:29.107Z,0.00
2018-07-13T00:16:29.903Z,0.00
2018-07-13T00:17:30.675Z,0.00
2018-07-13T00:18:31.455Z,0.00
2018-07-13T00:19:32.219Z,0.00
2018-07-13T00:20:32.989Z,0.00
2018-07-13T00:21:33.791Z,0.00
2018-07-13T00:22:34.560Z,0.00
2018-07-13T00:23:35.333Z,0.00
2018-07-13T00:24:36.103Z,0.00
2018-07-13T00:25:36.877Z,0.00
2018-07-13T00:26:37.673Z,0.00
2018-07-13T00:27:38.446Z,0.00
2018-07-13T00:28:39.220Z,0.00
2018-07-13T00:29:39.997Z,0.00
2018-07-13T00:30:40.772Z,0.00
2018-07-13T00:31:41.572Z,0.00
2018-07-13T00:32:42.341Z,0.00
2018-07-13T00:33:43.114Z,0.00
2018-07-13T00:34:43.888Z,0.00
2018-07-13T00:35:44.663Z,0.00
2018-07-13T00:36:45.463Z,0.00
2018-07-13T00:37:46.229Z,0.00
2018-07-13T00:38:47.006Z,0.00
2018-07-13T00:39:47.778Z,0.00
2018-07-13T00:40:48.546Z,0.00
2018-07-13T00:41:49.350Z,0.00
2018-07-13T00:42:50.116Z,0.00
2018-07-13T00:43:50.889Z,0.00
2018-07-13T00:44:51.661Z,0.00
2018-07-13T00:45:51.433Z,0.00
2018-07-13T00:46:53.231Z,0.00
2018-07-13T00:47:54.004Z,0.00
2018-07-13T00:48:54.777Z,0.00
2018-07-13T00:49:55.550Z,0.00
2018-07-13T00:50:56.328Z,0.00
2018-07-13T00:51:57.120Z,0.00
2018-07-13T00:52:57.896Z,0.00
2018-07-13T00:53:58.669Z,0.00
2018-07-13T00:54:59.445Z,0.00
2018-07-13T00:56:00.210Z,0.00
2018-07-13T00:57:01.019Z,0.00
2018-07-13T00:58:01.786Z,0.00
2018-07-13T00:59:02.559Z,0.00
2018-07-13T01:00:03.331Z,0.00
2018-07-13T01:01:04.111Z,0.00
2018-07-13T01:02:04.902Z,0.00
2018-07-13T01:03:05.680Z,0.00
2018-07-13T01:04:06.449Z,0.00
2018-07-13T01:05:07.223Z,0.00
2018-07-13T01:06:07.995Z,0.00
2018-07-13T01:07:08.789Z,0.00
2018-07-13T01:08:09.562Z,0.00
2018-07-13T01:09:10.336Z,0.00
2018-07-13T01:10:11.111Z,0.00
2018-07-13T01:11:11.884Z,0.00
2018-07-13T01:12:12.680Z,0.00
2018-07-13T01:13:13.452Z,0.00
2018-07-13T01:14:14.228Z,0.00
2018-07-13T01:15:14.996Z,0.00
2018-07-13T01:16:14.771Z,0.00
2018-07-13T01:17:16.565Z,0.00
2018-07-13T01:18:17.338Z,0.00
2018-07-13T01:19:18.108Z,0.00
2018-07-13T01:20:18.881Z,0.00
2018-07-13T01:21:19.653Z,0.00
2018-07-13T01:22:20.455Z,0.00
2018-07-13T01:23:21.226Z,0.00
2018-07-13T01:24:22.002Z,0.00
2018-07-13T01:25:22.769Z,0.00
2018-07-13T01:26:23.542Z,0.00
2018-07-13T01:27:24.340Z,0.00
2018-07-13T01:28:25.115Z,0.00
2018-07-13T01:29:25.885Z,0.00
2018-07-13T01:30:26.660Z,0.00
2018-07-13T01:31:27.432Z,0.00
2018-07-13T01:32:28.231Z,0.00
2018-07-13T01:33:29.002Z,0.00
2018-07-13T01:34:29.774Z,0.00
2018-07-13T01:35:30.550Z,0.00
2018-07-13T01:36:31.320Z,0.00
2018-07-13T01:37:32.121Z,0.00
2018-07-13T01:38:32.891Z,0.00
2018-07-13T01:39:33.662Z,0.00
2018-07-13T01:40:34.436Z,0.00
2018-07-13T01:41:35.208Z,0.00
2018-07-13T01:42:36.007Z,0.00
2018-07-13T01:43:36.787Z,0.00
2018-07-13T01:44:37.571Z,0.00
2018-07-13T01:45:38.333Z,0.00
2018-07-13T01:46:39.108Z,0.00
2018-07-13T01:47:39.903Z,0.00
2018-07-13T01:48:40.679Z,0.00
2018-07-13T01:49:41.456Z,0.00
2018-07-13T01:50:42.227Z,0.00
2018-07-13T01:51:43.004Z,0.00
2018-07-13T01:52:43.799Z,0.00
2018-07-13T01:53:44.575Z,0.00
2018-07-13T01:54:45.347Z,0.00
2018-07-13T01:55:46.239Z,0.00
2018-07-13T01:56:45.895Z,0.00
2018-07-13T01:57:47.692Z,0.00
2018-07-13T01:58:48.466Z,0.00
2018-07-13T01:59:49.617Z,0.00
2018-07-13T02:08:25.418Z,0.00
2018-07-13T02:09:26.206Z,0.00
2018-07-13T02:10:26.978Z,0.00
2018-07-13T02:11:27.746Z,0.00
2018-07-13T02:12:28.518Z,0.00
2018-07-13T02:13:29.312Z,0.00
2018-07-13T02:14:30.086Z,0.00
2018-07-13T02:15:30.856Z,0.00
2018-07-13T02:16:31.637Z,0.00
2018-07-13T02:17:32.407Z,0.00
2018-07-13T02:18:33.209Z,0.00
2018-07-13T02:19:33.980Z,0.00
2018-07-13T02:20:34.745Z,0.00
2018-07-13T02:21:35.518Z,0.00
2018-07-13T02:22:36.294Z,0.00
2018-07-13T02:23:37.088Z,0.00
2018-07-13T02:24:37.859Z,0.00
2018-07-13T02:25:38.630Z,0.00
2018-07-13T02:26:39.406Z,0.00
2018-07-13T02:27:40.180Z,0.00
2018-07-13T02:28:40.969Z,0.05
2018-07-13T02:29:41.738Z,0.05
2018-07-13T02:30:42.512Z,0.05
2018-07-13T02:31:43.282Z,0.05
2018-07-13T02:32:44.056Z,0.05
2018-07-13T02:33:44.925Z,0.05
2018-07-13T02:34:44.620Z,0.05
2018-07-13T02:35:46.389Z,0.05
2018-07-13T02:36:47.166Z,0.05
2018-07-13T02:37:47.938Z,0.05
2018-07-13T02:38:48.733Z,0.09
2018-07-13T02:39:49.500Z,0.09
2018-07-13T02:40:50.272Z,0.14
2018-07-13T02:41:51.043Z,0.14
2018-07-13T02:42:51.820Z,0.18
2018-07-13T02:43:52.611Z,0.18
2018-07-13T02:44:53.386Z,0.22
2018-07-13T02:45:54.186Z,0.27
2018-07-13T02:46:54.930Z,0.31
2018-07-13T02:47:55.703Z,0.31
2018-07-13T02:48:56.500Z,0.36
2018-07-13T02:49:57.269Z,0.41
2018-07-13T02:50:58.042Z,0.50
2018-07-13T02:51:58.818Z,0.54
2018-07-13T02:52:59.593Z,0.63
2018-07-13T02:54:00.389Z,0.72
2018-07-13T02:55:01.162Z,0.86
2018-07-13T02:56:01.935Z,0.99
2018-07-13T02:57:02.707Z,1.12
2018-07-13T02:58:03.475Z,1.30
2018-07-13T02:59:04.271Z,1.49
2018-07-13T03:00:05.044Z,1.71
2018-07-13T03:01:05.823Z,1.93
2018-07-13T03:02:06.594Z,2.25
2018-07-13T03:03:07.367Z,2.61
2018-07-13T03:04:08.161Z,3.06
2018-07-13T03:05:08.932Z,3.56
2018-07-13T03:06:09.713Z,4.09
2018-07-13T03:07:10.476Z,4.68
2018-07-13T03:08:11.251Z,5.45
2018-07-13T03:09:12.051Z,6.21
2018-07-13T03:10:12.819Z,7.16
2018-07-13T03:11:13.595Z,8.23
2018-07-13T03:12:14.369Z,9.40
2018-07-13T03:13:15.133Z,10.85
2018-07-13T03:14:15.928Z,12.42
2018-07-13T03:15:16.703Z,14.22
2018-07-13T03:16:17.479Z,16.20
2018-07-13T03:17:18.244Z,18.45
2018-07-13T03:18:19.017Z,20.97
2018-07-13T03:19:19.816Z,23.76
2018-07-13T03:20:20.588Z,26.82
2018-07-13T03:21:21.359Z,30.06
2018-07-13T03:22:22.129Z,33.48
2018-07-13T03:23:22.901Z,37.26
2018-07-13T03:24:23.696Z,41.22
2018-07-13T03:25:24.469Z,45.54
2018-07-13T03:26:25.245Z,50.04
2018-07-13T03:27:26.021Z,55.08
2018-07-13T03:28:26.790Z,60.12
2018-07-13T03:29:27.584Z,65.52
2018-07-13T03:30:28.359Z,71.28
2018-07-13T03:31:29.130Z,77.40
2018-07-13T03:32:29.904Z,83.88
2018-07-13T03:33:30.675Z,90.72
2018-07-13T03:34:31.485Z,97.92
2018-07-13T03:35:32.245Z,105.12
2018-07-13T03:36:33.019Z,113.04
2018-07-13T03:37:33.789Z,121.68
2018-07-13T03:38:34.570Z,130.32
2018-07-13T03:39:35.358Z,139.68
2018-07-13T03:40:36.134Z,149.04
2018-07-13T03:41:36.908Z,157.68
2018-07-13T03:42:37.676Z,168.48
2018-07-13T03:43:38.453Z,178.56
2018-07-13T03:44:39.295Z,188.64
2018-07-13T03:45:40.064Z,200.16
2018-07-13T03:46:40.830Z,211.68
2018-07-13T03:47:41.604Z,223.20
2018-07-13T03:48:42.377Z,234.72
2018-07-13T03:49:43.170Z,247.68
2018-07-13T03:50:43.941Z,259.20
2018-07-13T03:51:44.714Z,270.72
2018-07-13T03:52:45.486Z,285.12
2018-07-13T03:53:46.262Z,298.08
2018-07-13T03:54:47.058Z,311.04
2018-07-13T03:55:47.933Z,325.44
2018-07-13T03:56:48.004Z,339.84
2018-07-13T03:57:49.180Z,354.24
2018-07-13T03:58:48.376Z,368.64
2018-07-13T03:59:48.551Z,383.04
2018-07-13T04:00:48.761Z,397.44
2018-07-13T04:03:43.235Z,440.64
2018-07-13T04:04:44.006Z,455.04
2018-07-13T04:05:44.801Z,466.56
2018-07-13T04:06:45.571Z,480.96
2018-07-13T04:07:46.342Z,498.24
2018-07-13T04:08:47.112Z,512.64
2018-07-13T04:09:47.886Z,527.04
2018-07-13T04:10:48.680Z,544.32
2018-07-13T04:11:49.454Z,561.60
2018-07-13T04:12:50.220Z,576.00
2018-07-13T04:13:50.994Z,593.28
2018-07-13T04:14:51.769Z,613.44
2018-07-13T04:15:52.566Z,630.72
2018-07-13T04:16:53.339Z,645.12
2018-07-13T04:17:54.112Z,659.52
2018-07-13T04:18:54.883Z,673.92
2018-07-13T04:19:55.652Z,688.32
2018-07-13T04:20:56.455Z,705.60
2018-07-13T04:21:57.222Z,722.88
2018-07-13T04:22:57.994Z,743.04
2018-07-13T04:23:58.765Z,766.08
2018-07-13T04:24:59.536Z,789.12
2018-07-13T04:26:00.333Z,817.92
2018-07-13T04:27:01.103Z,840.96
2018-07-13T04:28:01.879Z,864.00
2018-07-13T04:29:02.645Z,875.52
2018-07-13T04:30:03.417Z,887.04
2018-07-13T04:31:04.216Z,892.80
2018-07-13T04:32:04.986Z,904.32
2018-07-13T04:33:05.767Z,915.84
2018-07-13T04:34:06.560Z,938.88
2018-07-13T04:35:07.302Z,961.92
2018-07-13T04:36:08.101Z,984.96
2018-07-13T04:37:08.871Z,1008.00
2018-07-13T04:38:09.645Z,1082.88
2018-07-13T04:39:10.415Z,1111.68
2018-07-13T04:40:11.187Z,1134.72
2018-07-13T04:41:12.044Z,1157.76
2018-07-13T04:42:11.757Z,1186.56
2018-07-13T04:43:13.529Z,1215.36
2018-07-13T04:44:14.300Z,1249.92
2018-07-13T04:45:15.081Z,1272.96
2018-07-13T04:46:15.870Z,1296.00
2018-07-13T04:47:16.643Z,1324.80
2018-07-13T04:48:17.412Z,1342.08
2018-07-13T04:49:18.183Z,1365.12
2018-07-13T04:50:19.023Z,1382.40
2018-07-13T04:51:18.753Z,1399.68
2018-07-13T04:52:20.526Z,1416.96
2018-07-13T04:53:21.299Z,1434.24
2018-07-13T04:54:22.068Z,1451.52
2018-07-13T04:55:22.850Z,1474.56
2018-07-13T04:56:23.645Z,1497.60
2018-07-13T04:57:24.420Z,1509.12
2018-07-13T04:58:25.186Z,1543.68
2018-07-13T04:59:25.961Z,1555.20
2018-07-13T05:00:26.731Z,1578.24
2018-07-13T05:01:27.534Z,1601.28
2018-07-13T05:02:28.302Z,1635.84
2018-07-13T05:03:29.078Z,1670.40
2018-07-13T05:04:29.847Z,1704.96
2018-07-13T05:05:30.622Z,1739.52
2018-07-13T05:06:31.417Z,1762.56
2018-07-13T05:07:32.188Z,1774.08
2018-07-13T05:08:32.968Z,1774.08
2018-07-13T05:09:33.740Z,1785.60
2018-07-13T05:10:34.518Z,1785.60
2018-07-13T05:11:35.312Z,1797.12
2018-07-13T05:12:36.085Z,1797.12
2018-07-13T05:13:36.859Z,1808.64
2018-07-13T05:14:37.634Z,1820.16
2018-07-13T05:15:38.404Z,1843.20
2018-07-13T05:16:39.206Z,1854.72
2018-07-13T05:17:39.975Z,1877.76
2018-07-13T05:18:40.748Z,1912.32
2018-07-13T05:19:41.519Z,1935.36
2018-07-13T05:20:42.293Z,1969.92
2018-07-13T05:21:43.090Z,1992.96
2018-07-13T05:22:43.868Z,2004.48
2018-07-13T05:23:44.637Z,2039.04
2018-07-13T05:24:45.410Z,2073.60
2018-07-13T05:25:46.178Z,2108.16
2018-07-13T05:26:46.978Z,2131.20
2018-07-13T05:27:47.751Z,2165.76
2018-07-13T05:28:48.520Z,2177.28
2018-07-13T05:29:49.294Z,2200.32
2018-07-13T05:30:50.134Z,2223.36
2018-07-13T05:31:49.865Z,2257.92
2018-07-13T05:32:51.636Z,2292.48
2018-07-13T05:33:52.413Z,2327.04
2018-07-13T05:34:53.182Z,2373.12
2018-07-13T05:35:53.954Z,2419.20
2018-07-13T05:36:54.750Z,2453.76
2018-07-13T05:37:55.522Z,2488.32
2018-07-13T05:38:56.293Z,2511.36
2018-07-13T05:39:57.072Z,2545.92
2018-07-13T05:40:57.841Z,2568.96
2018-07-13T05:41:58.637Z,2592.00
2018-07-13T05:42:59.407Z,2626.56
2018-07-13T05:44:00.183Z,2649.60
2018-07-13T05:45:00.954Z,2684.16
2018-07-13T05:46:01.728Z,2707.20
2018-07-13T05:47:02.529Z,2741.76
2018-07-13T05:48:03.299Z,2764.80
2018-07-13T05:49:04.070Z,2799.36
2018-07-13T05:50:04.844Z,2833.92
2018-07-13T05:51:05.618Z,2868.48
2018-07-13T05:52:06.415Z,2891.52
2018-07-13T05:53:07.959Z,2914.56
2018-07-13T05:54:08.151Z,2949.12
2018-07-13T05:55:07.327Z,2972.16
2018-07-13T05:58:22.431Z,3064.32
2018-07-13T05:59:23.200Z,3133.44
2018-07-13T06:00:23.972Z,3202.56
2018-07-13T06:01:24.742Z,3271.68
2018-07-13T06:02:25.592Z,3340.80
2018-07-13T06:03:25.308Z,3386.88
2018-07-13T06:04:27.081Z,3456.00
2018-07-13T06:05:27.851Z,3479.04
2018-07-13T06:06:28.626Z,3502.08
2018-07-13T06:07:29.421Z,3548.16
2018-07-13T06:08:30.196Z,3548.16
2018-07-13T06:09:30.975Z,3594.24
2018-07-13T06:10:31.751Z,3617.28
2018-07-13T06:11:32.512Z,3663.36
2018-07-13T06:12:33.312Z,3709.44
2018-07-13T06:13:34.085Z,3778.56
2018-07-13T06:14:34.863Z,3847.68
2018-07-13T06:15:35.669Z,3916.80
2018-07-13T06:16:35.395Z,4008.96
2018-07-13T06:17:37.199Z,4101.12
2018-07-13T06:18:37.962Z,4170.24
2018-07-13T06:19:38.735Z,4239.36
2018-07-13T06:20:39.510Z,4285.44
2018-07-13T06:21:40.279Z,4308.48
2018-07-13T06:22:41.078Z,4331.52
2018-07-13T06:23:41.849Z,4354.56
2018-07-13T06:24:42.617Z,4400.64
2018-07-13T06:25:43.388Z,4446.72
2018-07-13T06:26:44.163Z,4515.84
2018-07-13T06:27:44.960Z,4561.92
2018-07-13T06:28:45.731Z,4608.00
2018-07-13T06:29:46.502Z,4654.08
2018-07-13T06:30:47.278Z,4700.16
2018-07-13T06:31:48.050Z,4769.28
2018-07-13T06:32:48.845Z,4838.40
2018-07-13T06:33:49.615Z,4930.56
2018-07-13T06:34:50.392Z,4976.64
2018-07-13T06:35:51.163Z,5045.76
2018-07-13T06:36:51.939Z,5091.84
2018-07-13T06:37:52.734Z,5114.88
2018-07-13T06:38:53.505Z,5184.00
2018-07-13T06:39:54.279Z,5253.12
2018-07-13T06:40:55.055Z,5345.28
2018-07-13T06:41:55.825Z,5437.44
2018-07-13T06:42:56.636Z,5529.60
2018-07-13T06:43:57.402Z,5667.84
2018-07-13T06:44:58.178Z,5829.12
2018-07-13T06:45:58.946Z,5944.32
2018-07-13T06:46:59.727Z,6082.56
2018-07-13T06:48:00.518Z,6174.72
2018-07-13T06:49:01.294Z,6359.04
2018-07-13T06:50:02.066Z,6451.20
2018-07-13T06:51:02.841Z,6819.84
2018-07-13T06:52:03.610Z,6819.84
2018-07-13T06:53:04.412Z,7004.16
2018-07-13T06:54:05.180Z,7280.64
2018-07-13T06:55:05.958Z,8524.80
2018-07-13T06:56:06.726Z,11243.52
2018-07-13T06:57:07.502Z,12810.24
2018-07-13T06:58:08.299Z,14653.44
2018-07-13T06:59:09.066Z,15482.88
2018-07-13T07:00:09.839Z,15298.56
2018-07-13T07:01:10.616Z,15390.72
2018-07-13T07:02:11.383Z,15851.52
2018-07-13T07:03:12.186Z,16312.32
2018-07-13T07:04:12.956Z,16496.64
2018-07-13T07:05:13.733Z,16588.80
2018-07-13T07:06:14.500Z,17141.76
2018-07-13T07:07:15.279Z,16865.28
2018-07-13T07:08:16.068Z,14100.48
2018-07-13T07:09:16.841Z,12165.12
2018-07-13T07:10:17.615Z,11750.40
2018-07-13T07:11:18.392Z,11980.80
2018-07-13T07:12:19.160Z,14008.32
2018-07-13T07:13:19.958Z,16312.32
2018-07-13T07:14:20.729Z,17879.04
2018-07-13T07:15:21.508Z,17694.72
2018-07-13T07:16:22.277Z,19445.76
2018-07-13T07:17:23.053Z,20367.36
2018-07-13T07:18:23.847Z,20275.20
2018-07-13T07:19:24.620Z,20920.32
2018-07-13T07:20:25.390Z,21012.48
2018-07-13T07:21:26.168Z,20920.32
2018-07-13T07:22:26.106Z,20920.32
2018-07-13T07:23:26.826Z,21104.64
2018-07-13T07:24:28.617Z,21104.64
2018-07-13T07:25:28.373Z,21104.64
2018-07-13T07:26:30.147Z,21104.64
2018-07-13T07:27:30.916Z,21749.76
2018-07-13T07:28:31.716Z,22302.72
2018-07-13T07:29:32.488Z,22855.68
2018-07-13T07:30:33.314Z,23040.00
2018-07-13T07:31:33.035Z,23040.00
2018-07-13T07:32:34.810Z,23040.00
2018-07-13T07:33:35.603Z,23224.32
2018-07-13T07:34:36.378Z,23316.48
2018-07-13T07:35:37.152Z,23592.96
2018-07-13T07:36:37.923Z,23961.60
2018-07-13T07:37:38.932Z,24330.24
2018-07-13T07:38:38.656Z,24698.88
2018-07-13T07:39:40.679Z,24883.20
2018-07-13T07:40:40.376Z,25067.52
2018-07-13T07:41:42.147Z,24883.20
2018-07-13T07:42:42.928Z,25067.52
2018-07-13T07:43:43.721Z,25251.84
2018-07-13T07:44:44.491Z,25620.48
2018-07-13T07:45:45.263Z,25804.80
2018-07-13T07:46:46.033Z,25989.12
2018-07-13T07:47:46.805Z,25989.12
2018-07-13T07:48:47.608Z,26357.76
2018-07-13T07:49:48.379Z,26910.72
2018-07-13T07:50:49.150Z,27463.68
2018-07-13T07:51:50.025Z,27832.32
2018-07-13T07:52:50.080Z,28569.60
2018-07-13T07:53:51.294Z,28938.24
2018-07-13T07:54:50.485Z,29122.56
2018-07-13T07:54:57.931Z,29122.56
2018-07-13T07:55:58.709Z,29491.20
2018-07-13T07:56:59.477Z,29675.52
2018-07-13T07:58:00.255Z,29859.84
2018-07-13T07:59:01.047Z,30044.16
2018-07-13T08:00:01.820Z,29675.52
2018-07-13T08:01:02.591Z,29491.20
2018-07-13T08:02:03.363Z,29859.84
2018-07-13T08:03:04.138Z,29675.52
2018-07-13T08:04:04.943Z,30044.16
2018-07-13T08:05:04.702Z,31150.08
2018-07-13T08:06:06.488Z,31703.04
2018-07-13T08:07:07.907Z,31518.72
2018-07-13T08:08:07.021Z,31518.72
2018-07-13T08:09:08.816Z,32071.68
2018-07-13T08:10:09.590Z,32440.32
2018-07-13T08:11:10.366Z,32808.96
2018-07-13T08:12:11.132Z,32993.28
2018-07-13T08:13:11.912Z,33361.92
2018-07-13T08:14:13.092Z,33730.56
2018-07-13T08:15:12.483Z,34099.20
2018-07-13T08:16:14.259Z,34283.52
2018-07-13T08:17:15.023Z,34652.16
2018-07-13T08:18:15.795Z,35020.80
2018-07-13T08:19:16.591Z,35020.80
2018-07-13T08:20:17.364Z,35389.44
2018-07-13T08:21:18.136Z,35205.12
2018-07-13T08:22:18.913Z,35020.80
2018-07-13T08:23:19.685Z,35020.80
2018-07-13T08:24:20.483Z,35205.12
2018-07-13T08:25:21.255Z,35758.08
2018-07-13T08:26:22.031Z,35758.08
2018-07-13T08:27:22.804Z,35942.40
2018-07-13T08:28:23.574Z,36679.68
2018-07-13T08:29:24.371Z,37416.96
2018-07-13T08:30:25.144Z,37416.96
2018-07-13T08:31:25.914Z,37969.92
2018-07-13T08:32:26.694Z,38522.88
2018-07-13T08:33:27.465Z,38891.52
2018-07-13T08:34:28.261Z,38891.52
2018-07-13T08:35:29.033Z,38522.88
2018-07-13T08:36:29.807Z,38154.24
2018-07-13T08:37:30.574Z,37969.92
2018-07-13T08:38:31.348Z,38338.56
2018-07-13T08:39:32.154Z,38891.52
2018-07-13T08:40:32.918Z,39260.16
2018-07-13T08:41:33.699Z,39444.48
2018-07-13T08:42:34.461Z,39813.12
2018-07-13T08:43:35.235Z,39997.44
2018-07-13T08:44:36.031Z,39997.44
2018-07-13T08:45:36.830Z,40366.08
2018-07-13T08:46:37.575Z,40550.40
2018-07-13T08:47:38.345Z,40919.04
2018-07-13T08:48:39.118Z,41472.00
2018-07-13T08:49:39.915Z,41472.00
2018-07-13T08:50:40.688Z,41656.32
2018-07-13T08:51:41.540Z,41656.32
2018-07-13T08:52:41.240Z,42024.96
2018-07-13T08:53:43.008Z,42209.28
2018-07-13T08:54:43.810Z,42209.28
2018-07-13T08:55:44.695Z,42024.96
2018-07-13T08:56:44.616Z,42024.96
2018-07-13T08:57:45.311Z,42762.24
2018-07-13T08:58:47.082Z,42946.56
2018-07-13T08:59:47.927Z,41840.64
2018-07-13T09:00:47.648Z,41656.32
2018-07-13T09:01:49.625Z,42209.28
2018-07-13T09:02:49.319Z,43130.88
2018-07-13T09:03:51.090Z,43683.84
2018-07-13T09:04:51.986Z,43315.20
2018-07-13T09:05:51.781Z,43499.52
2018-07-13T09:06:52.449Z,43683.84
2018-07-13T09:07:54.218Z,43499.52
2018-07-13T09:08:54.989Z,43683.84
2018-07-13T09:09:55.785Z,43130.88
2018-07-13T09:10:56.556Z,43130.88
2018-07-13T09:11:57.433Z,42946.56
2018-07-13T09:12:57.171Z,42946.56
2018-07-13T09:13:57.878Z,43315.20
2018-07-13T09:14:59.676Z,43868.16
2018-07-13T09:16:00.447Z,43868.16
2018-07-13T09:17:01.217Z,44605.44
2018-07-13T09:18:01.991Z,45342.72
2018-07-13T09:19:02.764Z,45527.04
2018-07-13T09:20:03.567Z,45527.04
2018-07-13T09:21:04.334Z,45711.36
2018-07-13T09:22:05.102Z,44789.76
2018-07-13T09:23:05.877Z,43868.16
2018-07-13T09:24:06.727Z,44052.48
2018-07-13T09:25:06.445Z,44605.44
2018-07-13T09:26:08.217Z,44789.76
2018-07-13T09:27:08.996Z,45342.72
2018-07-13T09:28:09.764Z,45527.04
2018-07-13T09:29:10.544Z,45711.36
2018-07-13T09:30:11.332Z,46080.00
2018-07-13T09:31:12.165Z,46264.32
2018-07-13T09:32:11.880Z,46632.96
2018-07-13T09:33:13.654Z,46817.28
2018-07-13T09:34:14.435Z,47001.60
2018-07-13T09:35:15.230Z,46817.28
2018-07-13T09:36:16.001Z,46080.00
2018-07-13T09:37:16.781Z,47185.92
2018-07-13T09:38:17.653Z,47554.56
2018-07-13T09:39:17.322Z,48660.48
2018-07-13T09:40:19.120Z,49029.12
2018-07-13T09:41:19.889Z,50135.04
2018-07-13T09:42:20.664Z,50503.68
2018-07-13T09:43:21.435Z,49766.40
2018-07-13T09:44:22.211Z,49029.12
2018-07-13T09:45:23.009Z,49029.12
2018-07-13T09:46:23.780Z,49766.40
2018-07-13T09:47:24.549Z,49029.12
2018-07-13T09:48:25.323Z,49029.12
2018-07-13T09:49:26.093Z,49397.76
2018-07-13T09:50:26.894Z,49766.40
2018-07-13T09:51:27.662Z,49397.76
2018-07-13T09:52:28.438Z,49397.76
2018-07-13T09:53:29.211Z,50135.04
2018-07-13T09:54:30.084Z,50135.04
2018-07-13T09:55:57.310Z,50135.04
2018-07-13T09:56:58.101Z,50503.68
2018-07-13T09:57:58.853Z,50503.68
2018-07-13T09:58:59.621Z,50135.04
2018-07-13T10:00:00.397Z,49397.76
2018-07-13T10:01:01.209Z,50135.04
2018-07-13T10:02:00.965Z,52346.88
2018-07-13T10:03:02.731Z,51609.60
2018-07-13T10:04:03.509Z,51609.60
2018-07-13T10:05:04.281Z,50135.04
2018-07-13T10:06:05.081Z,50135.04
2018-07-13T10:07:05.846Z,49397.76
2018-07-13T10:08:06.616Z,49029.12
2018-07-13T10:09:07.390Z,47185.92
2018-07-13T10:10:08.164Z,47554.56
2018-07-13T10:11:08.958Z,47554.56
2018-07-13T10:12:09.729Z,48291.84
2018-07-13T10:13:10.499Z,49029.12
2018-07-13T10:14:11.278Z,49397.76
2018-07-13T10:15:12.047Z,47185.92
2018-07-13T10:16:12.841Z,47185.92
2018-07-13T10:17:13.614Z,48291.84
2018-07-13T10:18:14.385Z,47554.56
2018-07-13T10:19:15.154Z,49029.12
2018-07-13T10:20:15.929Z,51609.60
2018-07-13T10:21:16.722Z,51978.24
2018-07-13T10:22:17.496Z,52346.88
2018-07-13T10:23:18.265Z,51978.24
2018-07-13T10:24:19.038Z,49397.76
2018-07-13T10:25:19.816Z,51240.96
2018-07-13T10:26:20.606Z,50503.68
2018-07-13T10:27:21.379Z,49766.40
2018-07-13T10:28:22.148Z,50503.68
2018-07-13T10:29:22.921Z,47185.92
2018-07-13T10:30:23.693Z,40919.04
2018-07-13T10:31:24.490Z,37785.60
2018-07-13T10:32:25.273Z,41840.64
2018-07-13T10:33:26.037Z,48291.84
2018-07-13T10:34:26.809Z,47185.92
2018-07-13T10:35:27.623Z,47923.20
2018-07-13T10:36:27.377Z,39075.84
2018-07-13T10:37:29.149Z,50872.32
2018-07-13T10:38:29.929Z,47185.92
2018-07-13T10:39:30.693Z,28016.64
2018-07-13T10:40:31.467Z,25067.52
2018-07-13T10:41:32.269Z,24883.20
2018-07-13T10:42:33.040Z,35758.08
2018-07-13T10:43:33.810Z,39628.80
2018-07-13T10:44:34.583Z,50135.04
2018-07-13T10:45:35.355Z,39997.44
2018-07-13T10:46:36.157Z,51609.60
2018-07-13T10:47:36.941Z,53084.16
2018-07-13T10:48:36.699Z,37048.32
2018-07-13T10:49:38.468Z,50135.04
2018-07-13T10:50:39.242Z,32071.68
2018-07-13T10:51:40.041Z,49397.76
2018-07-13T10:52:40.815Z,47185.92
2018-07-13T10:53:41.592Z,47185.92
2018-07-13T10:54:42.361Z,22487.04
2018-07-13T10:55:43.140Z,47001.60
2018-07-13T10:56:43.933Z,34836.48
2018-07-13T10:57:44.703Z,10782.72
2018-07-13T10:58:45.519Z,11013.12
2018-07-13T10:59:45.257Z,10460.16
2018-07-13T11:00:47.024Z,10414.08
2018-07-13T11:01:47.825Z,11796.48
2018-07-13T11:02:48.628Z,16496.64
2018-07-13T11:03:48.368Z,47554.56
2018-07-13T11:04:50.144Z,46817.28
2018-07-13T11:05:50.918Z,47001.60
2018-07-13T11:06:51.714Z,48291.84
2018-07-13T11:07:52.489Z,47554.56
2018-07-13T11:08:53.258Z,47185.92
2018-07-13T11:09:54.034Z,48291.84
2018-07-13T11:10:54.804Z,47554.56
2018-07-13T11:11:55.601Z,47185.92
2018-07-13T11:12:56.372Z,34467.84
2018-07-13T11:13:57.160Z,38891.52
2018-07-13T11:14:56.915Z,45527.04
2018-07-13T11:15:58.691Z,50503.68
2018-07-13T11:16:59.493Z,47185.92
2018-07-13T11:18:00.331Z,49397.76
2018-07-13T11:19:00.049Z,49397.76
2018-07-13T11:20:01.817Z,44605.44
2018-07-13T11:21:02.590Z,20183.04
2018-07-13T11:22:03.385Z,15482.88
2018-07-13T11:23:04.157Z,13271.04
2018-07-13T11:24:04.939Z,13916.16
2018-07-13T11:25:05.711Z,23224.32
2018-07-13T11:26:06.479Z,41103.36
2018-07-13T11:27:07.279Z,49766.40
2018-07-13T11:28:08.049Z,51609.60
2018-07-13T11:29:08.825Z,45895.68
2018-07-13T11:30:09.597Z,44421.12
2018-07-13T11:31:10.372Z,29306.88
2018-07-13T11:32:11.171Z,37601.28
2018-07-13T11:33:11.941Z,43683.84
2018-07-13T11:34:12.720Z,16128.00
2018-07-13T11:35:13.489Z,25067.52
2018-07-13T11:36:14.264Z,31887.36
2018-07-13T11:37:15.173Z,31703.04
2018-07-13T11:38:14.834Z,28938.24
2018-07-13T11:39:16.608Z,23592.96
2018-07-13T11:40:17.383Z,22579.20
2018-07-13T11:41:18.158Z,22210.56
2018-07-13T11:42:18.954Z,20551.68
2018-07-13T11:43:19.726Z,21657.60
2018-07-13T11:44:20.502Z,26542.08
2018-07-13T11:45:21.273Z,20367.36
2018-07-13T11:46:22.046Z,20183.04
2018-07-13T11:47:22.844Z,20920.32
2018-07-13T11:48:23.615Z,36679.68
2018-07-13T11:49:24.486Z,36126.72
2018-07-13T11:50:24.545Z,52715.52
2018-07-13T11:51:25.729Z,52715.52
2018-07-13T11:52:24.933Z,51240.96
2018-07-13T11:53:25.136Z,36495.36
2018-07-13T12:08:56.317Z,37785.60
2018-07-13T12:09:56.088Z,23408.64
2018-07-13T12:10:57.857Z,46817.28
2018-07-13T12:11:58.675Z,45527.04
2018-07-13T12:12:59.411Z,43499.52
2018-07-13T12:14:00.204Z,15667.20
2018-07-13T12:15:00.977Z,12625.92
2018-07-13T12:16:01.753Z,12810.24
2018-07-13T12:17:02.526Z,12902.40
2018-07-13T12:18:03.296Z,14284.80
2018-07-13T12:19:04.089Z,16588.80
2018-07-13T12:20:04.865Z,20090.88
2018-07-13T12:21:05.632Z,17141.76
2018-07-13T12:22:06.404Z,25251.84
2018-07-13T12:23:07.194Z,20183.04
2018-07-13T12:24:07.978Z,26910.72
2018-07-13T12:25:08.747Z,40550.40
2018-07-13T12:26:09.533Z,41840.64
2018-07-13T12:27:10.310Z,42577.92
2018-07-13T12:28:11.095Z,37785.60
2018-07-13T12:29:12.004Z,32624.64
2018-07-13T12:30:11.675Z,21012.48
2018-07-13T12:31:13.447Z,23040.00
2018-07-13T12:32:14.226Z,38338.56
2018-07-13T12:33:15.001Z,39813.12
2018-07-13T12:34:15.989Z,41472.00
2018-07-13T12:35:15.588Z,24514.56
2018-07-13T12:36:17.354Z,27279.36
2018-07-13T12:37:18.128Z,36864.00
2018-07-13T12:38:18.899Z,17786.88
2018-07-13T12:39:19.697Z,12625.92
2018-07-13T12:40:20.469Z,11335.68
2018-07-13T12:41:21.240Z,10275.84
2018-07-13T12:42:22.016Z,9308.16
2018-07-13T12:43:22.784Z,8524.80
2018-07-13T12:44:23.583Z,7649.28
2018-07-13T12:45:24.357Z,6912.00
2018-07-13T12:46:25.132Z,6405.12
2018-07-13T12:47:25.916Z,6082.56
2018-07-13T12:48:26.699Z,5990.40
2018-07-13T12:49:27.480Z,5990.40
2018-07-13T12:50:28.254Z,5990.40
2018-07-13T12:51:29.024Z,6497.28
2018-07-13T12:52:29.798Z,12165.12
2018-07-13T12:53:30.571Z,5990.40
2018-07-13T12:54:31.464Z,5667.84
2018-07-13T12:55:31.180Z,5391.36
2018-07-13T12:56:32.959Z,5253.12
2018-07-13T12:57:33.722Z,5276.16
2018-07-13T12:58:34.491Z,5391.36
2018-07-13T12:59:35.333Z,5506.56